Ashburn, Georgia
Current Conditions -  °F | °C
As of 7:15 PM on Wednesday 22 Oct 2014 (Local Time) from KCKF Reporting Station
Clear Clear  
Wind Chill: 61°   Ceiling: Unl
Heat Index: 61°   Visibility: 10mi
Dew Point: 50°   Wind: 0mph
Humidity: 68%   Direction: NA
Pressure: 30.06"   Gusts: NA
Location:  31.71°N, 83.65°W
Report Text: KCKF 222315Z AUTO 00000KT 10SM CLR 16/10 A3006 RMK AO2 T01610101
Loading
Personal Weather Stations






























Interactive Weather Map
Tropical Storm Tracking
New forecast layout! Learn more

10-Day Weather Forecast

Advertisements
Track Severe Weather on mobile